Time;durP1;ratioP1;P1;durP2;ratioP2;P2;SDS_P1;SDS_P2;PMS_P1;PMS_P2;Temp;Humidity;BMP_temperature;BMP_pressure;BME280_temperature;BME280_humidity;BME280_pressure;Samples;Min_cycle;Max_cycle;Signal;HPM_P1;HPM_P2
2022/06/06 00:03:35;;;;;;;;;;;14.80;99.90;;;;;;8388410;28;20363;-74
2022/06/06 00:07:36;;;;;;;;;;;14.80;99.90;;;;;;8382139;28;19927;-74
2022/06/06 00:11:38;;;;;;;;;;;14.70;99.90;;;;;;8387037;28;19921;-74
2022/06/06 00:15:40;;;;;;;;;;;14.60;99.90;;;;;;8382089;28;20288;-73
2022/06/06 00:19:42;;;;;;;;;;;14.60;99.90;;;;;;8390419;28;20303;-74
2022/06/06 00:23:43;;;;;;;;;;;14.60;99.90;;;;;;8384987;28;19924;-74
2022/06/06 00:27:45;;;;;;;;;;;14.60;99.90;;;;;;8383465;28;19936;-73
2022/06/06 00:36:18;;;;;;;;;;;14.60;99.90;;;;;;8326982;28;19920;-73
2022/06/06 00:40:21;;;;;;;;;;;14.70;99.90;;;;;;8390930;28;19928;-74
2022/06/06 00:44:30;;;;;;;;;;;14.70;99.90;;;;;;8388763;28;20252;-75
2022/06/06 00:48:39;;;;;;;;;;;14.60;99.90;;;;;;8392354;28;20003;-74
2022/06/06 00:52:43;;;;;;;;;;;14.60;99.90;;;;;;8384482;28;19920;-73
2022/06/06 00:56:47;;;;;;;;;;;14.60;99.90;;;;;;8417575;28;20276;-74
2022/06/06 01:00:50;;;;;;;;;;;14.60;99.90;;;;;;8388749;28;19936;-74
2022/06/06 01:04:53;;;;;;;;;;;14.60;99.90;;;;;;8388313;28;20372;-74
2022/06/06 01:08:55;;;;;;;;;;;14.60;99.90;;;;;;8375488;28;19935;-74
2022/06/06 01:12:56;;;;;;;;;;;14.70;99.90;;;;;;8391519;28;19924;-74
2022/06/06 01:17:01;;;;;;;;;;;14.60;99.90;;;;;;8391258;28;20257;-75
2022/06/06 01:21:21;;;;;;;;;;;14.60;99.90;;;;;;8390745;28;19928;-74
2022/06/06 01:25:31;;;;;;;;;;;14.60;99.90;;;;;;8387486;28;19927;-75
2022/06/06 01:29:36;;;;;;;;;;;14.60;99.90;;;;;;8379001;28;19929;-74
2022/06/06 01:33:52;;;;;;;;;;;14.60;99.90;;;;;;8393234;28;19935;-74
2022/06/06 01:37:54;;;;;;;;;;;14.70;99.90;;;;;;8393349;28;19920;-74
2022/06/06 01:42:17;;;;;;;;;;;14.70;99.90;;;;;;8386377;28;19920;-74
2022/06/06 01:46:22;;;;;;;;;;;14.70;99.90;;;;;;8390474;28;20383;-73
2022/06/06 01:50:25;;;;;;;;;;;14.70;99.90;;;;;;8387047;28;19924;-74
2022/06/06 01:54:27;;;;;;;;;;;14.70;99.90;;;;;;8383162;28;19934;-74
2022/06/06 01:58:30;;;;;;;;;;;14.70;99.90;;;;;;8380488;28;19921;-74
2022/06/06 02:02:31;;;;;;;;;;;14.70;99.90;;;;;;8383987;28;19931;-74
2022/06/06 02:06:33;;;;;;;;;;;14.80;99.90;;;;;;8382986;28;19939;-74
2022/06/06 02:10:35;;;;;;;;;;;14.80;99.90;;;;;;8381597;28;19920;-74
2022/06/06 02:14:37;;;;;;;;;;;14.80;99.90;;;;;;8386966;28;19928;-73
2022/06/06 02:18:38;;;;;;;;;;;14.90;99.90;;;;;;8384024;28;19920;-73
2022/06/06 02:22:40;;;;;;;;;;;14.90;99.90;;;;;;8382193;28;19921;-73
2022/06/06 02:26:42;;;;;;;;;;;14.90;99.90;;;;;;8378930;28;20376;-74
2022/06/06 02:30:44;;;;;;;;;;;14.90;99.90;;;;;;8385154;28;20342;-74
2022/06/06 02:34:45;;;;;;;;;;;14.90;99.90;;;;;;8385779;28;19932;-74
2022/06/06 02:38:47;;;;;;;;;;;14.90;99.90;;;;;;8385917;28;19924;-73
2022/06/06 02:42:49;;;;;;;;;;;14.90;99.90;;;;;;8389080;28;19928;-73
2022/06/06 02:46:51;;;;;;;;;;;14.90;99.90;;;;;;8393526;28;19936;-74
2022/06/06 02:50:52;;;;;;;;;;;14.90;99.90;;;;;;8388730;28;20303;-74
2022/06/06 02:54:54;;;;;;;;;;;14.90;99.90;;;;;;8390725;28;19920;-74
2022/06/06 02:58:57;;;;;;;;;;;14.90;99.90;;;;;;8387101;28;19925;-74
2022/06/06 03:02:59;;;;;;;;;;;14.90;99.90;;;;;;8391736;28;19921;-73
2022/06/06 03:07:19;;;;;;;;;;;14.90;99.90;;;;;;8392268;28;19920;-73
2022/06/06 03:11:29;;;;;;;;;;;14.90;99.90;;;;;;8396793;28;19932;-73
2022/06/06 03:15:37;;;;;;;;;;;14.90;99.90;;;;;;8392354;28;19931;-73
2022/06/06 03:24:13;;;;;;;;;;;14.90;99.90;;;;;;8396075;28;19931;-73
2022/06/06 03:28:20;;;;;;;;;;;14.90;99.90;;;;;;8396422;28;20371;-73
2022/06/06 03:32:34;;;;;;;;;;;14.90;99.90;;;;;;8419674;28;20400;-73
2022/06/06 03:36:43;;;;;;;;;;;14.90;99.90;;;;;;8388419;28;19928;-73
2022/06/06 03:40:47;;;;;;;;;;;14.90;99.90;;;;;;8390518;28;19939;-74
2022/06/06 03:45:01;;;;;;;;;;;14.90;99.90;;;;;;8388004;28;19939;-73
2022/06/06 03:49:06;;;;;;;;;;;15.00;99.90;;;;;;8391197;28;19921;-73
2022/06/06 03:53:10;;;;;;;;;;;15.00;99.90;;;;;;8379456;28;20430;-74
2022/06/06 03:57:21;;;;;;;;;;;15.00;99.90;;;;;;8392830;28;19931;-73
2022/06/06 04:01:23;;;;;;;;;;;15.00;99.90;;;;;;8386774;28;19928;-74
2022/06/06 04:05:24;;;;;;;;;;;15.00;99.90;;;;;;8370178;28;19920;-73
2022/06/06 04:09:30;;;;;;;;;;;15.00;99.90;;;;;;8386458;28;19920;-73
2022/06/06 04:13:32;;;;;;;;;;;15.00;99.90;;;;;;8390579;28;20375;-73
2022/06/06 04:17:33;;;;;;;;;;;15.00;99.90;;;;;;8399463;28;19920;-73
2022/06/06 04:21:52;;;;;;;;;;;15.00;99.90;;;;;;8383601;28;19927;-73
2022/06/06 04:25:56;;;;;;;;;;;15.00;99.90;;;;;;8391223;28;20383;-74
2022/06/06 04:30:06;;;;;;;;;;;15.00;99.90;;;;;;8400101;28;19920;-73
2022/06/06 04:34:09;;;;;;;;;;;15.00;99.90;;;;;;8386527;28;19920;-73
2022/06/06 04:38:31;;;;;;;;;;;15.10;99.90;;;;;;8393979;28;19939;-73
2022/06/06 04:42:42;;;;;;;;;;;15.10;99.90;;;;;;8358893;28;19936;-72
2022/06/06 04:46:58;;;;;;;;;;;15.00;99.90;;;;;;8360594;28;19927;-73
2022/06/06 04:51:01;;;;;;;;;;;15.00;99.90;;;;;;8373725;28;19924;-73
2022/06/06 04:55:04;;;;;;;;;;;14.90;99.90;;;;;;8358778;28;20368;-73
2022/06/06 04:59:09;;;;;;;;;;;14.90;99.90;;;;;;8356566;28;20373;-73
2022/06/06 05:03:13;;;;;;;;;;;14.80;99.90;;;;;;8371803;28;19944;-73
2022/06/06 05:07:24;;;;;;;;;;;14.80;99.90;;;;;;8365890;28;20368;-74
2022/06/06 05:11:25;;;;;;;;;;;14.70;99.90;;;;;;8345203;28;20010;-73
2022/06/06 05:15:27;;;;;;;;;;;14.70;99.90;;;;;;8353741;28;19944;-73
2022/06/06 05:19:52;;;;;;;;;;;14.70;99.90;;;;;;8355493;28;19921;-73
2022/06/06 05:24:06;;;;;;;;;;;14.70;99.90;;;;;;8357466;28;19925;-73
2022/06/06 05:28:18;;;;;;;;;;;14.70;99.90;;;;;;8353614;28;19931;-73
2022/06/06 05:32:26;;;;;;;;;;;14.60;99.90;;;;;;8364621;28;19927;-73
2022/06/06 05:36:30;;;;;;;;;;;14.60;99.90;;;;;;8354671;28;20252;-73
2022/06/06 05:40:37;;;;;;;;;;;14.60;99.90;;;;;;8362237;28;19924;-69
2022/06/06 05:44:48;;;;;;;;;;;14.60;99.90;;;;;;8376390;28;19966;-68
2022/06/06 05:49:00;;;;;;;;;;;14.60;99.90;;;;;;8388814;28;19927;-68
2022/06/06 05:53:05;;;;;;;;;;;14.70;99.90;;;;;;8398567;28;19927;-68
2022/06/06 05:57:37;;;;;;;;;;;14.70;99.90;;;;;;8379878;28;20299;-68
2022/06/06 06:01:39;;;;;;;;;;;14.70;99.90;;;;;;8359750;28;19935;-68
2022/06/06 06:05:53;;;;;;;;;;;14.80;99.90;;;;;;8388183;28;19925;-68
2022/06/06 06:10:14;;;;;;;;;;;14.90;99.90;;;;;;8376981;28;19925;-68
2022/06/06 06:14:23;;;;;;;;;;;14.90;99.90;;;;;;8387715;28;20011;-68
2022/06/06 06:18:39;;;;;;;;;;;15.00;99.90;;;;;;8389407;28;19924;-68
2022/06/06 06:22:53;;;;;;;;;;;15.00;99.90;;;;;;8380309;28;19932;-68
2022/06/06 06:26:55;;;;;;;;;;;15.00;99.90;;;;;;8378014;28;19970;-68
2022/06/06 06:31:00;;;;;;;;;;;15.10;99.90;;;;;;8384234;28;19943;-68
2022/06/06 06:35:01;;;;;;;;;;;15.00;99.90;;;;;;8386878;28;19931;-68
2022/06/06 06:39:20;;;;;;;;;;;15.10;99.90;;;;;;8383689;28;19940;-69
2022/06/06 06:43:28;;;;;;;;;;;15.10;99.90;;;;;;8383913;28;20369;-68
2022/06/06 06:47:31;;;;;;;;;;;15.20;99.90;;;;;;8386162;28;19975;-68
2022/06/06 06:51:32;;;;;;;;;;;15.30;99.90;;;;;;8385296;28;19924;-68
2022/06/06 06:55:58;;;;;;;;;;;15.30;99.90;;;;;;8386075;28;19924;-68
2022/06/06 07:00:02;;;;;;;;;;;15.20;99.90;;;;;;8385834;28;19925;-69
2022/06/06 07:08:48;;;;;;;;;;;15.10;99.90;;;;;;8383276;28;20050;-69
2022/06/06 07:13:30;;;;;;;;;;;15.10;99.90;;;;;;8382763;28;19931;-69
2022/06/06 07:17:34;;;;;;;;;;;15.10;99.90;;;;;;8349964;28;19933;-68
2022/06/06 07:21:36;;;;;;;;;;;15.10;99.90;;;;;;8366326;28;19932;-69
2022/06/06 07:25:40;;;;;;;;;;;15.10;99.90;;;;;;8383447;28;19933;-68
2022/06/06 07:29:41;;;;;;;;;;;15.20;99.90;;;;;;8390549;28;19929;-68
2022/06/06 07:33:43;;;;;;;;;;;15.30;99.90;;;;;;8386785;28;19933;-69
2022/06/06 07:38:12;;;;;;;;;;;15.40;99.90;;;;;;8394288;28;19958;-69
2022/06/06 07:42:21;;;;;;;;;;;15.40;99.90;;;;;;8393312;28;19924;-69
2022/06/06 07:46:22;;;;;;;;;;;15.40;99.90;;;;;;8388331;28;20288;-69
2022/06/06 07:50:26;;;;;;;;;;;15.30;99.90;;;;;;8395708;28;19931;-68
2022/06/06 07:54:30;;;;;;;;;;;15.30;99.90;;;;;;8392605;28;19925;-70
2022/06/06 07:58:37;;;;;;;;;;;15.30;99.90;;;;;;8404171;28;19928;-69
2022/06/06 08:02:48;;;;;;;;;;;15.30;99.90;;;;;;8392450;28;19931;-69
2022/06/06 08:06:58;;;;;;;;;;;15.30;99.90;;;;;;8392843;28;19924;-69
2022/06/06 08:11:08;;;;;;;;;;;15.50;99.90;;;;;;8376600;28;20021;-69
2022/06/06 08:15:10;;;;;;;;;;;15.60;99.90;;;;;;8371159;28;19928;-68
2022/06/06 08:19:26;;;;;;;;;;;15.60;99.90;;;;;;8358824;28;19928;-69
2022/06/06 08:23:30;;;;;;;;;;;15.80;99.90;;;;;;8360600;28;20073;-69
2022/06/06 08:27:32;;;;;;;;;;;15.80;99.90;;;;;;8359376;28;20659;-69
2022/06/06 08:31:34;;;;;;;;;;;15.80;99.90;;;;;;8359116;28;19936;-68
2022/06/06 08:35:41;;;;;;;;;;;15.90;99.90;;;;;;8357945;28;20281;-68
2022/06/06 08:39:42;;;;;;;;;;;16.00;99.90;;;;;;8358764;28;20296;-69
2022/06/06 08:43:58;;;;;;;;;;;16.10;99.90;;;;;;8362570;28;19992;-69
2022/06/06 08:48:14;;;;;;;;;;;16.20;99.90;;;;;;8392915;27;19925;-68
2022/06/06 08:52:41;;;;;;;;;;;16.20;99.90;;;;;;8359364;28;20400;-68
2022/06/06 08:56:44;;;;;;;;;;;16.30;99.90;;;;;;8355625;28;19924;-69
2022/06/06 09:01:03;;;;;;;;;;;16.30;99.90;;;;;;8357804;28;20640;-69
2022/06/06 09:05:23;;;;;;;;;;;16.30;99.90;;;;;;8357039;28;19932;-69
2022/06/06 09:09:44;;;;;;;;;;;16.40;99.90;;;;;;8372702;28;20280;-69
2022/06/06 09:13:55;;;;;;;;;;;16.50;99.90;;;;;;8361386;28;19933;-69
2022/06/06 09:18:03;;;;;;;;;;;16.70;99.90;;;;;;8361775;28;19932;-69
2022/06/06 09:22:20;;;;;;;;;;;16.80;99.90;;;;;;8362763;28;20414;-69
2022/06/06 09:26:41;;;;;;;;;;;16.80;99.90;;;;;;8367069;28;20419;-69
2022/06/06 09:30:42;;;;;;;;;;;16.70;99.90;;;;;;8358264;28;20373;-68
2022/06/06 09:34:59;;;;;;;;;;;16.70;99.90;;;;;;8360588;28;19936;-68
2022/06/06 09:39:07;;;;;;;;;;;16.60;99.90;;;;;;8361662;28;19924;-68
2022/06/06 09:43:19;;;;;;;;;;;16.80;99.90;;;;;;8359007;28;20070;-68
2022/06/06 09:47:21;;;;;;;;;;;17.00;99.90;;;;;;8364916;28;19925;-68
2022/06/06 09:51:29;;;;;;;;;;;17.00;99.90;;;;;;8358057;28;19932;-69
2022/06/06 10:00:09;;;;;;;;;;;17.10;99.90;;;;;;8363039;28;19932;-68
2022/06/06 10:04:29;;;;;;;;;;;17.30;99.90;;;;;;8375712;28;20050;-69
2022/06/06 10:08:49;;;;;;;;;;;17.40;99.90;;;;;;8366305;28;20038;-69
2022/06/06 10:12:54;;;;;;;;;;;17.40;99.90;;;;;;8362671;28;19932;-69
2022/06/06 10:17:11;;;;;;;;;;;17.50;99.90;;;;;;8382004;28;19943;-69
2022/06/06 10:21:31;;;;;;;;;;;17.50;99.90;;;;;;8363353;28;19940;-69
2022/06/06 10:25:49;;;;;;;;;;;17.30;99.90;;;;;;8354633;28;19929;-70
2022/06/06 10:30:11;;;;;;;;;;;17.20;99.90;;;;;;8359197;28;20043;-69
2022/06/06 10:34:28;;;;;;;;;;;17.40;99.90;;;;;;8368332;28;20475;-70
2022/06/06 10:38:49;;;;;;;;;;;17.50;99.90;;;;;;8351144;28;19994;-69
2022/06/06 10:43:07;;;;;;;;;;;17.60;99.90;;;;;;8360307;28;19925;-69
2022/06/06 10:47:33;;;;;;;6.13;2.70;;;17.90;99.90;;;;;;8358783;28;19924;-68
2022/06/06 10:51:39;;;;;;;4.93;1.70;;;18.10;99.90;;;;;;8362886;28;20041;-69
2022/06/06 10:55:49;;;;;;;4.15;1.90;;;17.90;99.90;;;;;;8355834;28;20056;-69
2022/06/06 10:59:51;;;;;;;7.55;2.40;;;17.70;99.90;;;;;;8359678;28;20048;-69
2022/06/06 11:04:21;;;;;;;6.65;2.00;;;17.50;99.90;;;;;;8373117;28;20048;-69
2022/06/06 11:08:39;;;;;;;;;;;17.20;99.90;;;;;;8373691;28;20076;-68
2022/06/06 11:12:47;;;;;;;;;;;16.10;99.90;;;;;;8362982;28;20285;-69
2022/06/06 11:17:07;;;;;;;;;;;15.10;99.90;;;;;;8360550;28;19921;-70
2022/06/06 11:21:15;;;;;;;;;;;14.70;99.90;;;;;;8356845;28;20035;-69
2022/06/06 11:25:18;;;;;;;;;;;14.60;99.90;;;;;;8381196;28;19921;-69
2022/06/06 11:29:29;;;;;;;;;;;14.60;99.90;;;;;;8359327;28;19932;-69
2022/06/06 11:33:35;;;;;;;;;;;14.80;99.90;;;;;;8374657;28;20064;-70
2022/06/06 11:37:58;;;;;;;;;;;15.10;99.90;;;;;;8355580;28;19929;-69
2022/06/06 11:42:00;;;;;;;;;;;15.20;99.90;;;;;;8385966;27;19929;-69
2022/06/06 11:46:11;;;;;;;;;;;15.40;99.90;;;;;;8355254;28;19932;-69
2022/06/06 11:50:31;;;;;;;;;;;15.40;99.90;;;;;;8360338;28;19928;-69
2022/06/06 11:54:44;;;;;;;;;;;15.30;99.90;;;;;;8359260;28;19935;-70
2022/06/06 11:58:46;;;;;;;;;;;15.30;99.90;;;;;;8359996;28;19927;-70
2022/06/06 12:03:07;;;;;;;;;;;15.20;99.90;;;;;;8359514;28;19921;-70
2022/06/06 12:07:28;;;;;;;;;;;15.20;99.90;;;;;;8351443;28;19936;-69
2022/06/06 12:11:42;;;;;;;;;;;14.90;99.90;;;;;;8355237;28;20360;-68
2022/06/06 12:15:50;;;;;;;;;;;14.70;99.90;;;;;;8353130;28;19928;-69
2022/06/06 12:20:15;;;;;;;;;;;14.50;99.90;;;;;;8384932;28;19927;-70
2022/06/06 12:24:30;;;;;;;;;;;14.50;99.90;;;;;;8345254;28;19951;-69
2022/06/06 12:28:45;;;;;;;;;;;14.50;99.90;;;;;;8357970;28;19922;-70
2022/06/06 12:33:03;;;;;;;;;;;14.50;99.90;;;;;;8373383;28;19931;-70
2022/06/06 12:37:13;;;;;;;;;;;14.60;99.90;;;;;;8362302;28;19927;-70
2022/06/06 12:41:24;;;;;;;;;;;14.70;99.90;;;;;;8356094;28;19921;-69
2022/06/06 12:45:38;;;;;;;;;;;14.80;99.90;;;;;;8351799;28;20608;-69
2022/06/06 12:49:55;;;;;;;;;;;14.90;99.90;;;;;;8378087;28;19925;-69
2022/06/06 12:54:11;;;;;;;;;;;15.00;99.90;;;;;;8357895;28;20284;-69
2022/06/06 12:58:17;;;;;;;;;;;15.00;99.90;;;;;;8356727;28;19935;-69
2022/06/06 13:02:22;;;;;;;;;;;15.00;99.90;;;;;;8354429;28;19921;-70
2022/06/06 13:06:36;;;;;;;;;;;15.00;99.90;;;;;;8361634;28;19925;-70
2022/06/06 13:10:46;;;;;;;;;;;15.10;99.90;;;;;;8351938;28;19940;-70
2022/06/06 13:14:47;;;;;;;;;;;15.20;99.90;;;;;;8390151;28;19921;-69
2022/06/06 13:18:49;;;;;;;;;;;15.10;99.90;;;;;;8354205;28;20273;-70
2022/06/06 13:23:04;;;;;;;;;;;15.00;99.90;;;;;;8355557;28;20284;-69
2022/06/06 13:27:15;;;;;;;;;;;14.80;99.90;;;;;;8356261;28;19951;-69
2022/06/06 13:31:21;;;;;;;;;;;14.70;99.90;;;;;;8358094;28;19921;-68
2022/06/06 13:35:29;;;;;;;;;;;14.60;99.90;;;;;;8354596;28;19927;-68
2022/06/06 13:39:30;;;;;;;;;;;14.40;99.90;;;;;;8357756;28;20292;-69
2022/06/06 13:43:50;;;;;;;;;;;14.40;99.90;;;;;;8354754;28;19921;-68
2022/06/06 13:48:07;;;;;;;;;;;14.30;99.90;;;;;;8356830;28;20022;-70
2022/06/06 13:52:35;;;;;;;;;;;14.20;99.90;;;;;;8357519;28;19928;-71
2022/06/06 13:57:00;;;;;;;;;;;14.10;99.90;;;;;;8359432;28;19935;-71
2022/06/06 14:01:34;;;;;;;;;;;14.00;99.90;;;;;;8346171;28;19928;-71
2022/06/06 14:05:42;;;;;;;;;;;13.90;99.90;;;;;;8329606;28;19966;-70
2022/06/06 14:09:46;;;;;;;;;;;13.80;99.90;;;;;;8358347;28;19931;-71
2022/06/06 14:13:52;;;;;;;;;;;13.80;99.90;;;;;;8366771;28;20323;-71
2022/06/06 14:17:59;;;;;;;;;;;13.70;99.90;;;;;;8367072;28;19924;-71
2022/06/06 14:22:05;;;;;;;;;;;13.70;99.90;;;;;;8360023;28;19924;-71
2022/06/06 14:26:13;;;;;;;;;;;13.70;99.90;;;;;;8381320;28;20439;-70
2022/06/06 14:30:24;;;;;;;;;;;13.70;99.90;;;;;;8359948;28;20400;-71
2022/06/06 14:34:43;;;;;;;;;;;13.70;99.90;;;;;;8359413;28;20376;-71
2022/06/06 14:38:45;;;;;;;;;;;13.70;99.90;;;;;;8359618;28;19924;-70
2022/06/06 14:42:53;;;;;;;;;;;13.60;99.90;;;;;;8362525;28;19928;-71
2022/06/06 14:47:03;;;;;;;;;;;13.50;99.90;;;;;;8375854;28;19955;-71
2022/06/06 14:51:06;;;;;;;;;;;13.50;99.90;;;;;;8358606;28;19938;-71
2022/06/06 14:55:08;;;;;;;;;;;13.40;99.90;;;;;;8357414;28;19924;-71
2022/06/06 14:59:14;;;;;;;;;;;13.40;99.90;;;;;;8388976;28;19925;-71
2022/06/06 15:03:16;;;;;;;;;;;13.30;99.90;;;;;;8354093;28;20028;-71
2022/06/06 15:07:19;;;;;;;;;;;13.30;99.90;;;;;;8365315;28;19925;-71
2022/06/06 15:11:24;;;;;;;;;;;13.30;99.90;;;;;;8356057;28;19920;-71
2022/06/06 15:15:29;;;;;;;;;;;13.30;99.90;;;;;;8358990;28;19932;-71
2022/06/06 15:19:33;;;;;;;;;;;13.20;99.90;;;;;;8356829;28;20360;-71
2022/06/06 15:23:47;;;;;;;;;;;13.20;99.90;;;;;;8365648;28;19920;-72
2022/06/06 15:27:58;;;;;;;;;;;13.10;99.90;;;;;;8355404;28;19928;-69
2022/06/06 15:31:59;;;;;;;;;;;13.00;99.90;;;;;;8360598;28;20366;-71
2022/06/06 15:36:02;;;;;;;;;;;13.00;99.90;;;;;;8367995;28;19929;-72
2022/06/06 15:40:10;;;;;;;;;;;12.90;99.90;;;;;;8358875;28;20321;-71
2022/06/06 15:44:16;;;;;;;;;;;13.00;99.90;;;;;;8358112;28;19925;-71
2022/06/06 15:48:36;;;;;;;;;;;13.00;99.90;;;;;;8366602;28;20375;-71
2022/06/06 15:52:57;;;;;;;;;;;13.00;99.90;;;;;;8361753;28;19940;-71
2022/06/06 15:57:02;;;;;;;;;;;13.00;99.90;;;;;;8360597;28;20284;-71
2022/06/06 16:01:22;;;;;;;;;;;13.10;99.90;;;;;;8377409;28;19921;-71
2022/06/06 16:05:26;;;;;;;;;;;13.20;99.90;;;;;;8378864;28;20376;-72
2022/06/06 16:09:34;;;;;;;;;;;13.20;99.90;;;;;;8382375;28;20376;-72
2022/06/06 16:13:41;;;;;;;;;;;13.30;99.90;;;;;;8396956;28;20027;-71
2022/06/06 16:17:48;;;;;;;;;;;13.30;99.90;;;;;;8369151;28;19990;-71
2022/06/06 16:21:59;;;;;;;;;;;13.30;99.90;;;;;;8358129;28;19921;-71
2022/06/06 16:26:15;;;;;;;;;;;13.30;99.90;;;;;;8361371;28;20391;-71
2022/06/06 16:30:40;;;;;;;;;;;13.30;99.90;;;;;;8353582;28;19940;-71
2022/06/06 16:34:42;;;;;;;;;;;13.30;99.90;;;;;;8353340;28;19953;-71
2022/06/06 16:38:43;;;;;;;;;;;13.30;99.90;;;;;;8358501;28;19978;-71
2022/06/06 16:51:51;;;;;;;;;;;13.40;99.90;;;;;;8357853;28;19968;-71
2022/06/06 16:55:55;;;;;;;;;;;13.40;99.90;;;;;;8363644;28;19920;-71
2022/06/06 17:00:07;;;;;;;;;;;13.20;99.90;;;;;;8356979;28;20356;-71
2022/06/06 17:04:11;;;;;;;;;;;13.10;99.90;;;;;;8358700;28;19920;-71
2022/06/06 17:08:18;;;;;;;;;;;13.00;99.90;;;;;;8356353;28;19954;-71
2022/06/06 17:12:29;;;;;;;;;;;13.00;99.90;;;;;;8357278;28;19921;-71
2022/06/06 17:16:34;;;;;;;;;;;13.00;99.90;;;;;;8357166;28;20240;-71
2022/06/06 17:20:39;;;;;;;;;;;13.00;99.90;;;;;;8355911;28;19925;-70
2022/06/06 17:24:50;;;;;;;;;;;13.00;99.90;;;;;;8359967;28;20380;-71
2022/06/06 17:29:00;;;;;;;;;;;13.00;99.90;;;;;;8367508;28;19944;-71
2022/06/06 17:33:13;;;;;;;;;;;13.00;99.90;;;;;;8362897;28;19935;-71
2022/06/06 17:37:22;;;;;;;;;;;13.10;99.90;;;;;;8362825;28;19979;-71
2022/06/06 17:41:26;;;;;;;;;;;13.10;99.90;;;;;;8361332;28;19921;-71
2022/06/06 17:45:44;;;;;;;;;;;13.20;99.90;;;;;;8361156;28;20386;-71
2022/06/06 17:49:52;;;;;;;;;;;13.20;99.90;;;;;;8374624;28;19929;-71
2022/06/06 17:53:57;;;;;;;;;;;13.20;99.90;;;;;;8359799;28;19927;-71
2022/06/06 17:58:10;;;;;;;;;;;13.20;99.90;;;;;;8358901;28;19928;-71
2022/06/06 18:02:18;;;;;;;;;;;13.20;99.90;;;;;;8361174;28;20361;-71
2022/06/06 18:06:28;;;;;;;;;;;13.20;99.90;;;;;;8360963;28;19921;-71
2022/06/06 18:11:04;;;;;;;;;;;13.20;99.90;;;;;;8359953;28;19982;-71
2022/06/06 18:15:06;;;;;;;;;;;13.20;99.90;;;;;;8372804;28;19928;-70
2022/06/06 18:19:12;;;;;;;;;;;13.20;99.90;;;;;;8357890;28;19920;-70
2022/06/06 18:23:14;;;;;;;;;;;13.10;99.90;;;;;;8351287;28;19947;-70
2022/06/06 18:27:19;;;;;;;;;;;13.10;99.90;;;;;;8354977;28;19928;-70
2022/06/06 18:31:22;;;;;;;;;;;13.10;99.90;;;;;;8356755;28;19990;-70
2022/06/06 18:35:38;;;;;;;;;;;13.10;99.90;;;;;;8364725;28;19951;-70
2022/06/06 18:39:46;;;;;;;;;;;13.10;99.90;;;;;;8352862;28;19928;-69
2022/06/06 18:43:48;;;;;;;;;;;13.10;99.90;;;;;;8350294;28;19966;-70
2022/06/06 18:47:52;;;;;;;;;;;13.10;99.90;;;;;;8349665;28;19921;-70
2022/06/06 18:52:02;;;;;;;;;;;13.20;99.90;;;;;;8357162;28;19932;-70
2022/06/06 18:56:04;;;;;;;;;;;13.20;99.90;;;;;;8356177;28;19924;-70
2022/06/06 19:00:13;;;;;;;;;;;13.20;99.90;;;;;;8386238;28;19921;-70
2022/06/06 19:04:24;;;;;;;;;;;13.20;99.90;;;;;;8357875;28;19928;-70
2022/06/06 19:08:25;;;;;;;;;;;13.20;99.90;;;;;;8368024;28;20430;-70
2022/06/06 19:12:30;;;;;;;;;;;13.20;99.90;;;;;;8382850;28;20019;-70
2022/06/06 19:16:35;;;;;;;;;;;13.10;99.90;;;;;;8351759;28;19928;-70
2022/06/06 19:20:39;;;;;;;;;;;13.10;99.90;;;;;;8353275;28;19928;-70
2022/06/06 19:24:46;;;;;;;;;;;13.20;99.90;;;;;;8394594;28;19948;-70
2022/06/06 19:29:10;;;;;;;;;;;13.20;99.90;;;;;;8360478;28;19925;-70
2022/06/06 19:33:23;;;;;;;;;;;13.10;99.90;;;;;;8354644;28;19920;-70
2022/06/06 19:37:39;;;;;;;;;;;13.10;99.90;;;;;;8357085;28;20364;-69
2022/06/06 19:41:42;;;;;;;;;;;13.10;99.90;;;;;;8355934;28;19940;-70
2022/06/06 19:45:52;;;;;;;;;;;13.10;99.90;;;;;;8357545;28;19928;-70
2022/06/06 19:49:56;;;;;;;;;;;13.10;99.90;;;;;;8358861;28;19928;-69
2022/06/06 19:54:00;;;;;;;;;;;13.10;99.90;;;;;;8358008;28;20403;-70
2022/06/06 19:58:03;;;;;;;;;;;13.10;99.90;;;;;;8356674;28;19924;-69
2022/06/06 20:02:11;;;;;;;;;;;13.10;99.90;;;;;;8356562;28;19924;-70
2022/06/06 20:06:33;;;;;;;;;;;13.10;99.90;;;;;;8360312;28;19920;-69
2022/06/06 20:10:35;;;;;;;;;;;13.10;99.90;;;;;;8351383;28;19920;-70
2022/06/06 20:14:48;;;;;;;;;;;13.10;99.90;;;;;;8357193;28;19928;-69
2022/06/06 20:18:51;;;;;;;;;;;13.10;99.90;;;;;;8357269;28;24313;-69
2022/06/06 20:22:53;;;;;;;;;;;13.10;99.90;;;;;;8356086;28;19932;-70
2022/06/06 20:26:55;;;;;;;;;;;13.00;99.90;;;;;;8390868;28;19921;-70
2022/06/06 20:35:34;;;;;;;;;;;13.10;99.90;;;;;;8361985;28;19985;-70
2022/06/06 20:39:37;;;;;;;;;;;13.10;99.90;;;;;;8357134;28;19920;-70
2022/06/06 20:43:39;;;;;;;;;;;13.10;99.90;;;;;;8357621;28;19921;-70
2022/06/06 20:47:48;;;;;;;;;;;13.10;99.90;;;;;;8358399;28;19927;-70
2022/06/06 20:51:52;;;;;;;;;;;13.10;99.90;;;;;;8368486;28;19928;-70
2022/06/06 20:55:58;;;;;;;;;;;13.20;99.90;;;;;;8357561;28;19924;-70
2022/06/06 21:00:05;;;;;;;;;;;13.20;99.90;;;;;;8358688;28;19951;-70
2022/06/06 21:04:07;;;;;;;;;;;13.20;99.90;;;;;;8381442;28;20371;-70
2022/06/06 21:08:24;;;;;;;;;;;13.20;99.90;;;;;;8374870;28;19965;-70
2022/06/06 21:12:26;;;;;;;;;;;13.10;99.90;;;;;;8374204;28;19929;-69
2022/06/06 21:16:27;;;;;;;;;;;13.10;99.90;;;;;;8392378;28;19924;-70
2022/06/06 21:20:29;;;;;;;;;;;13.10;99.90;;;;;;8387642;28;19920;-70
2022/06/06 21:24:33;;;;;;;;;;;13.10;99.90;;;;;;8376480;28;19927;-70
2022/06/06 21:28:35;;;;;;;;;;;13.10;99.90;;;;;;8382682;28;19928;-70
2022/06/06 21:32:36;;;;;;;;;;;13.10;99.90;;;;;;8378303;28;20620;-69
2022/06/06 21:36:38;;;;;;;;;;;13.10;99.90;;;;;;8413935;28;19939;-70
2022/06/06 21:40:40;;;;;;;;;;;13.00;99.90;;;;;;8385925;28;19929;-69
2022/06/06 21:44:41;;;;;;;;;;;13.00;99.90;;;;;;8378838;28;19924;-70
2022/06/06 21:48:43;;;;;;;;;;;13.00;99.90;;;;;;8380581;28;19928;-69
2022/06/06 21:52:45;;;;;;;;;;;13.00;99.90;;;;;;8383777;28;19947;-70
2022/06/06 21:56:48;;;;;;;;;;;13.00;99.90;;;;;;8380553;28;19925;-70
2022/06/06 22:00:50;;;;;;;;;;;13.10;99.90;;;;;;8380513;28;19948;-69
2022/06/06 22:04:55;;;;;;;;;;;13.10;99.90;;;;;;8372551;28;20368;-70
2022/06/06 22:08:57;;;;;;;;;;;13.10;99.90;;;;;;8371388;28;19932;-70
2022/06/06 22:12:59;;;;;;;;;;;13.10;99.90;;;;;;8379661;28;19996;-69
2022/06/06 22:17:01;;;;;;;;;;;13.10;99.90;;;;;;8386165;28;19920;-70
2022/06/06 22:21:03;;;;;;;;;;;13.10;99.90;;;;;;8382361;28;19925;-69
2022/06/06 22:25:05;;;;;;;;;;;13.10;99.90;;;;;;8376046;28;19966;-70
2022/06/06 22:29:07;;;;;;;;;;;13.10;99.90;;;;;;8372020;28;19929;-70
2022/06/06 22:33:09;;;;;;;;;;;13.10;99.90;;;;;;8375738;28;19974;-70
2022/06/06 22:37:11;;;;;;;;;;;13.20;99.90;;;;;;8388616;28;19920;-69
2022/06/06 22:41:13;;;;;;;;;;;13.20;99.90;;;;;;8381997;28;19939;-69
2022/06/06 22:45:15;;;;;;;;;;;13.20;99.90;;;;;;8382205;28;19931;-69
2022/06/06 22:49:16;;;;;;;;;;;13.20;99.90;;;;;;8385132;28;20225;-69
2022/06/06 22:53:18;;;;;;;;;;;13.20;99.90;;;;;;8382460;28;20222;-69
2022/06/06 22:57:20;;;;;;;;;;;13.20;99.90;;;;;;8377362;28;20284;-70
2022/06/06 23:01:22;;;;;;;;;;;13.20;99.90;;;;;;8377404;28;20367;-69
2022/06/06 23:05:24;;;;;;;;;;;13.20;99.90;;;;;;8385030;28;19925;-70
2022/06/06 23:09:27;;;;;;;;;;;13.20;99.90;;;;;;8379500;28;20249;-69
2022/06/06 23:13:28;;;;;;;;;;;13.20;99.90;;;;;;8398627;28;19920;-69
2022/06/06 23:17:30;;;;;;;;;;;13.20;99.90;;;;;;8386304;28;19924;-70
2022/06/06 23:21:32;;;;;;;;;;;13.20;99.90;;;;;;8390773;28;19927;-70
2022/06/06 23:25:33;;;;;;;;;;;13.20;99.90;;;;;;8389515;28;19935;-69
2022/06/06 23:29:35;;;;;;;;;;;13.30;99.90;;;;;;8392188;28;19928;-70
2022/06/06 23:33:39;;;;;;;;;;;13.30;99.90;;;;;;8392871;28;19924;-70
2022/06/06 23:37:44;;;;;;;;;;;13.30;99.90;;;;;;8387930;28;19921;-70
2022/06/06 23:41:47;;;;;;;;;;;13.30;99.90;;;;;;8382789;28;20364;-69
2022/06/06 23:50:29;;;;;;;;;;;13.30;99.90;;;;;;8387792;28;19928;-69
2022/06/06 23:54:31;;;;;;;;;;;13.30;99.90;;;;;;8403313;28;19920;-69
2022/06/06 23:58:32;;;;;;;;;;;13.40;99.90;;;;;;8383820;28;19958;-69
